Eyr Myken — LCQU — position and weather

sailwx.info

Track history (hours):
 
Tides and Currents Weather Stations Pressure Air Temp Water Temp Dewpoint Dewpoint Depression Visibility Wind Speed Wind Dir Waves Ship Positions

Eyr Myken

Last reported at 2018-Feb-17 23:08 UTC. Time now 2018-Feb-18 22:12 UTC.
Position N 66°39' E 013°05'.

Length 18 m.

Type: Medical transport. MMSI: 257054000.

Date/timePositionNaut miles runAvg speedWind from/ knotsBaromVisibWave heightAir tempDewpointWater temp
2018-Feb-17 23:08N 66°39' E 013°05'522.7
2018-Feb-17 22:55N 66°35' E 012°57'1127.2
2018-Feb-17 22:31N 66°24' E 012°59'4 5.7
2018-Feb-17 21:51N 66°20' E 013°00'514.6
2018-Feb-17 21:29N 66°24' E 012°50'0 0.4
2018-Feb-17 20:46N 66°24' E 012°51'2 9.0
2018-Feb-17 20:30N 66°26' E 012°49'15 0.6
2018-Feb-16 21:22N 66°40' E 013°06'0 0.4
2018-Feb-16 20:15N 66°39' E 013°05'0 0.0
2018-Feb-15 08:22N 66°39' E 013°05'9 6.5
2018-Feb-15 07:00N 66°31' E 013°00'714.8
2018-Feb-15 06:30N 66°25' E 012°50'1326.8
2018-Feb-15 06:00N 66°37' E 012°59'3 0.4
2018-Feb-14 22:50N 66°39' E 013°05'3 4.6
2018-Feb-14 22:12N 66°40' E 013°12'727.5
2018-Feb-14 21:57N 66°33' E 013°11'1 0.7
2018-Feb-14 21:10N 66°33' E 013°12'711.4
2018-Feb-14 20:33N 66°40' E 013°07'8 0.7
2018-Feb-14 09:23N 66°32' E 012°57'8 5.3
2018-Feb-14 07:54N 66°40' E 013°06'0 0.0
2018-Feb-13 18:50N 66°39' E 013°05'823.4
2018-Feb-13 18:30N 66°32' E 012°57'1428.4
2018-Feb-13 18:00N 66°18' E 012°58'6 4.2
2018-Feb-13 16:31N 66°12' E 012°51'527.7
2018-Feb-13 16:20N 66°18' E 012°54'616.0
2018-Feb-13 15:55N 66°24' E 012°51'410.8
2018-Feb-13 15:30N 66°28' E 012°54'1212.9
2018-Feb-13 14:35N 66°39' E 013°05'0 0.0
2018-Feb-13 14:20N 66°39' E 013°05'1 2.7
2018-Feb-13 13:50N 66°39' E 013°08'722.9
2018-Feb-13 13:31N 66°36' E 012°50'4 7.9
2018-Feb-13 12:58N 66°36' E 012°40'0 0.0
2018-Feb-13 12:29N 66°36' E 012°40'0 0.0
2018-Feb-13 11:59N 66°36' E 012°40'0 0.0
2018-Feb-13 11:28N 66°36' E 012°40'0 0.0
2018-Feb-13 10:44N 66°36' E 012°40'0 0.0
2018-Feb-13 10:31N 66°36' E 012°40'0 0.0
2018-Feb-13 10:00N 66°36' E 012°40'11 0.5
2018-Feb-12 13:44N 66°39' E 013°05'0 0.0
2018-Feb-11 02:18N 66°39' E 013°05'7 9.7
2018-Feb-11 01:37N 66°33' E 013°12'325.7
2018-Feb-11 01:30N 66°36' E 013°10'  
Track history (hours):
 
Tides and Currents Weather Stations Pressure Air Temp Water Temp Dewpoint Dewpoint Depression Visibility Wind Speed Wind Dir Waves Ship Positions

Eyr Myken

Last reported at 2018-Feb-17 23:08 UTC. Time now 2018-Feb-18 22:12 UTC.
Position N 66°39' E 013°05'.

Length 18 m.

Type: Medical transport. MMSI: 257054000.

Date/timePositionNaut miles runAvg speedWind from/ knotsBaromVisibWave heightAir tempDewpointWater temp
2018-Feb-17 23:08N 66°39' E 013°05'522.7
2018-Feb-17 22:55N 66°35' E 012°57'1127.2
2018-Feb-17 22:31N 66°24' E 012°59'4 5.7
2018-Feb-17 21:51N 66°20' E 013°00'514.6
2018-Feb-17 21:29N 66°24' E 012°50'0 0.4
2018-Feb-17 20:46N 66°24' E 012°51'2 9.0
2018-Feb-17 20:30N 66°26' E 012°49'15 0.6
2018-Feb-16 21:22N 66°40' E 013°06'0 0.4
2018-Feb-16 20:15N 66°39' E 013°05'0 0.0
2018-Feb-15 08:22N 66°39' E 013°05'9 6.5
2018-Feb-15 07:00N 66°31' E 013°00'714.8
2018-Feb-15 06:30N 66°25' E 012°50'1326.8
2018-Feb-15 06:00N 66°37' E 012°59'3 0.4
2018-Feb-14 22:50N 66°39' E 013°05'3 4.6
2018-Feb-14 22:12N 66°40' E 013°12'727.5
2018-Feb-14 21:57N 66°33' E 013°11'1 0.7
2018-Feb-14 21:10N 66°33' E 013°12'711.4
2018-Feb-14 20:33N 66°40' E 013°07'8 0.7
2018-Feb-14 09:23N 66°32' E 012°57'8 5.3
2018-Feb-14 07:54N 66°40' E 013°06'0 0.0
2018-Feb-13 18:50N 66°39' E 013°05'823.4
2018-Feb-13 18:30N 66°32' E 012°57'1428.4
2018-Feb-13 18:00N 66°18' E 012°58'6 4.2
2018-Feb-13 16:31N 66°12' E 012°51'527.7
2018-Feb-13 16:20N 66°18' E 012°54'616.0
2018-Feb-13 15:55N 66°24' E 012°51'410.8
2018-Feb-13 15:30N 66°28' E 012°54'1212.9
2018-Feb-13 14:35N 66°39' E 013°05'0 0.0
2018-Feb-13 14:20N 66°39' E 013°05'1 2.7
2018-Feb-13 13:50N 66°39' E 013°08'722.9
2018-Feb-13 13:31N 66°36' E 012°50'4 7.9
2018-Feb-13 12:58N 66°36' E 012°40'0 0.0
2018-Feb-13 12:29N 66°36' E 012°40'0 0.0
2018-Feb-13 11:59N 66°36' E 012°40'0 0.0
2018-Feb-13 11:28N 66°36' E 012°40'0 0.0
2018-Feb-13 10:44N 66°36' E 012°40'0 0.0
2018-Feb-13 10:31N 66°36' E 012°40'0 0.0
2018-Feb-13 10:00N 66°36' E 012°40'11 0.5
2018-Feb-12 13:44N 66°39' E 013°05'0 0.0
2018-Feb-11 02:18N 66°39' E 013°05'7 9.7
2018-Feb-11 01:37N 66°33' E 013°12'325.7
2018-Feb-11 01:30N 66°36' E 013°10'  

Dump ship's entire track history